METAR Data
IDs: Format: Raw Decoded Include TAF

Data at: 0848 UTC 13 Aug 2022

EDDP 130820Z 05009KT 020V080 CAVOK 25/15 Q1018 NOSIG